createdAt,value
2022-08-03T00:01:19.759Z,69.37
2022-08-03T00:04:02.807Z,69.41
2022-08-03T00:06:45.614Z,69.66
2022-08-03T00:09:28.340Z,69.67
2022-08-03T00:12:18.389Z,69.82
2022-08-03T00:15:01.237Z,69.97
2022-08-03T00:17:53.121Z,70.22
2022-08-03T00:20:36.905Z,70.34
2022-08-03T00:23:19.525Z,70.40
2022-08-03T00:26:02.956Z,70.57
2022-08-03T00:28:45.665Z,70.48
2022-08-03T00:31:51.407Z,70.78
2022-08-03T00:34:35.240Z,70.81
2022-08-03T00:37:40.851Z,71.06
2022-08-03T00:40:25.265Z,71.15
2022-08-03T00:43:09.206Z,71.09
2022-08-03T00:45:51.632Z,71.10
2022-08-03T00:48:35.686Z,71.35
2022-08-03T00:51:20.541Z,71.29
2022-08-03T00:54:03.467Z,71.31
2022-08-03T00:56:59.787Z,71.50
2022-08-03T00:59:43.208Z,71.51
2022-08-03T01:02:26.342Z,71.53
2022-08-03T01:05:11.282Z,71.68
2022-08-03T01:08:04.980Z,71.72
2022-08-03T01:11:17.182Z,71.75
2022-08-03T01:14:29.092Z,71.86
2022-08-03T01:17:29.821Z,72.00
2022-08-03T01:20:14.908Z,72.14
2022-08-03T01:23:06.412Z,72.25
2022-08-03T01:26:15.295Z,72.39
2022-08-03T01:29:08.513Z,72.55
2022-08-03T01:32:53.615Z,72.58
2022-08-03T01:35:12.168Z,72.67
2022-08-03T01:38:03.125Z,72.50
2022-08-03T01:40:48.240Z,72.43
2022-08-03T01:44:28.358Z,72.52
2022-08-03T01:46:35.304Z,72.63
2022-08-03T01:49:18.760Z,72.67
2022-08-03T01:52:05.480Z,72.68
2022-08-03T01:54:52.050Z,72.74
2022-08-03T01:58:05.163Z,72.83
2022-08-03T02:00:42.341Z,73.04
2022-08-03T02:03:25.834Z,73.02
2022-08-03T02:06:59.814Z,73.22
2022-08-03T02:09:16.876Z,73.28
2022-08-03T02:12:01.310Z,73.26
2022-08-03T02:14:46.337Z,73.26
2022-08-03T02:17:39.229Z,73.25
2022-08-03T02:20:27.199Z,73.24
2022-08-03T02:23:11.133Z,73.48
2022-08-03T02:26:00.123Z,73.49
2022-08-03T02:28:50.180Z,73.54
2022-08-03T02:31:38.426Z,73.44
2022-08-03T02:34:23.949Z,73.25
2022-08-03T02:37:09.036Z,73.29
2022-08-03T02:39:56.424Z,73.22
2022-08-03T02:42:45.072Z,73.11
2022-08-03T02:45:29.519Z,73.04
2022-08-03T02:48:13.445Z,73.25
2022-08-03T02:51:00.142Z,73.23
2022-08-03T02:53:50.001Z,73.23
2022-08-03T02:56:34.640Z,73.29
2022-08-03T02:59:19.370Z,73.20
2022-08-03T03:02:04.050Z,73.31
2022-08-03T03:05:52.758Z,73.29
2022-08-03T03:07:51.812Z,73.25
2022-08-03T03:10:39.902Z,73.38
2022-08-03T03:13:23.661Z,73.60
2022-08-03T03:16:06.856Z,73.61
2022-08-03T03:18:50.735Z,73.43
2022-08-03T03:21:34.564Z,73.54
2022-08-03T03:24:17.978Z,73.75
2022-08-03T03:27:01.500Z,73.93
2022-08-03T03:29:45.076Z,74.07
2022-08-03T03:32:29.731Z,74.16
2022-08-03T03:35:14.382Z,74.14
2022-08-03T03:37:57.867Z,74.28
2022-08-03T03:40:40.850Z,74.23
2022-08-03T03:43:24.780Z,74.16
2022-08-03T03:46:08.123Z,74.09
2022-08-03T03:48:51.138Z,74.30
2022-08-03T03:51:37.104Z,74.30
2022-08-03T03:54:20.168Z,74.28
2022-08-03T03:57:04.192Z,74.36
2022-08-03T03:59:47.024Z,74.57
2022-08-03T04:02:30.355Z,74.77
2022-08-03T04:05:33.158Z,74.80
2022-08-03T04:08:37.562Z,75.28
2022-08-03T04:11:42.051Z,75.63
2022-08-03T04:14:32.812Z,75.72
2022-08-03T04:17:16.008Z,75.20
2022-08-03T04:20:01.739Z,74.84
2022-08-03T04:22:43.867Z,74.73
2022-08-03T04:25:30.373Z,74.73
2022-08-03T04:28:29.423Z,74.46
2022-08-03T04:31:16.327Z,74.15
2022-08-03T04:34:00.470Z,74.03
2022-08-03T04:36:50.964Z,73.94
2022-08-03T04:39:34.052Z,73.91
2022-08-03T04:42:16.866Z,73.97
2022-08-03T04:45:01.651Z,74.20
2022-08-03T04:47:45.780Z,74.26
2022-08-03T04:50:28.393Z,74.16
2022-08-03T04:53:19.529Z,74.27
2022-08-03T04:56:06.213Z,74.34
2022-08-03T04:58:48.211Z,74.63
2022-08-03T05:01:32.440Z,74.90
2022-08-03T05:04:23.700Z,75.21
2022-08-03T05:07:11.616Z,74.90
2022-08-03T05:09:57.578Z,74.28
2022-08-03T05:12:46.315Z,73.84
2022-08-03T05:15:28.473Z,73.92
2022-08-03T05:18:14.102Z,73.70
2022-08-03T05:20:56.350Z,73.55
2022-08-03T05:23:38.247Z,73.36
2022-08-03T05:26:20.346Z,73.44
2022-08-03T05:29:02.188Z,73.52
2022-08-03T05:31:44.139Z,73.23
2022-08-03T05:34:25.977Z,72.68
2022-08-03T05:37:07.966Z,71.93
2022-08-03T05:39:49.825Z,70.63
2022-08-03T05:42:31.925Z,70.89
2022-08-03T05:45:18.839Z,70.22
2022-08-03T05:48:00.892Z,70.31
2022-08-03T05:50:43.071Z,69.62
2022-08-03T05:53:25.140Z,68.98
2022-08-03T05:56:13.875Z,68.36
2022-08-03T05:58:57.329Z,68.02
2022-08-03T06:01:39.390Z,67.42
2022-08-03T06:04:21.432Z,67.89
2022-08-03T06:07:03.731Z,68.19
2022-08-03T06:10:35.078Z,68.31
2022-08-03T06:12:49.642Z,67.66
2022-08-03T06:15:33.587Z,66.52
2022-08-03T06:18:15.485Z,65.42
2022-08-03T06:20:57.377Z,64.90
2022-08-03T06:23:53.926Z,64.04
2022-08-03T06:26:37.563Z,64.67
2022-08-03T06:29:19.451Z,63.67
2022-08-03T06:32:01.449Z,61.95
2022-08-03T06:34:43.343Z,62.52
2022-08-03T06:37:25.341Z,61.75
2022-08-03T06:40:07.898Z,61.81
2022-08-03T06:42:49.747Z,61.40
2022-08-03T06:45:34.251Z,59.95
2022-08-03T06:48:16.406Z,59.41
2022-08-03T06:50:58.301Z,58.16
2022-08-03T06:53:40.607Z,57.71
2022-08-03T06:56:22.503Z,56.96
2022-08-03T06:59:04.401Z,55.91
2022-08-03T07:01:46.321Z,55.28
2022-08-03T07:04:28.291Z,54.56
2022-08-03T07:07:10.132Z,54.39
2022-08-03T07:09:57.154Z,53.93
2022-08-03T07:12:55.698Z,54.40
2022-08-03T07:15:55.857Z,55.37
2022-08-03T07:18:39.857Z,56.70
2022-08-03T07:21:21.959Z,55.14
2022-08-03T07:24:04.366Z,54.03
2022-08-03T07:26:46.568Z,53.62
2022-08-03T07:29:30.410Z,52.85
2022-08-03T07:32:17.389Z,52.06
2022-08-03T07:35:01.149Z,50.13
2022-08-03T07:37:53.043Z,50.37
2022-08-03T07:40:36.731Z,49.11
2022-08-03T07:43:18.576Z,47.99
2022-08-03T07:46:00.524Z,46.24
2022-08-03T07:48:43.546Z,45.87
2022-08-03T07:51:25.853Z,45.00
2022-08-03T07:54:10.716Z,45.69
2022-08-03T07:56:52.723Z,44.15
2022-08-03T07:59:57.214Z,42.54
2022-08-03T08:02:38.220Z,42.78
2022-08-03T08:05:20.408Z,41.85
2022-08-03T08:08:03.749Z,41.74
2022-08-03T08:10:58.001Z,41.48
2022-08-03T08:13:40.748Z,40.49
2022-08-03T08:16:22.850Z,41.91
2022-08-03T08:19:06.177Z,41.07
2022-08-03T08:21:54.046Z,40.86
2022-08-03T08:24:45.125Z,40.34
2022-08-03T08:27:27.486Z,41.12
2022-08-03T08:30:12.270Z,40.75
2022-08-03T08:32:55.880Z,40.19
2022-08-03T08:35:37.929Z,40.56
2022-08-03T08:38:22.079Z,38.51
2022-08-03T08:41:04.233Z,38.29
2022-08-03T08:43:46.281Z,38.80
2022-08-03T08:46:32.374Z,38.94
2022-08-03T08:49:18.932Z,38.76
2022-08-03T08:52:04.163Z,39.20
2022-08-03T08:55:08.493Z,37.31
2022-08-03T08:57:59.285Z,37.15
2022-08-03T09:00:41.788Z,38.26
2022-08-03T09:03:29.949Z,38.56
2022-08-03T09:06:13.874Z,38.23
2022-08-03T09:08:55.873Z,37.68
2022-08-03T09:11:57.744Z,37.70
2022-08-03T09:14:54.800Z,38.31
2022-08-03T09:17:41.803Z,38.09
2022-08-03T09:20:25.439Z,37.42
2022-08-03T09:23:51.687Z,37.40
2022-08-03T09:26:12.168Z,37.21
2022-08-03T09:29:09.350Z,36.48
2022-08-03T09:32:02.937Z,36.23
2022-08-03T09:34:44.787Z,35.98
2022-08-03T09:38:11.859Z,35.73
2022-08-03T09:40:36.628Z,34.98
2022-08-03T09:43:18.943Z,34.85
2022-08-03T09:46:05.553Z,34.04
2022-08-03T09:48:47.443Z,34.25
2022-08-03T09:51:33.369Z,34.29
2022-08-03T09:54:32.828Z,34.85
2022-08-03T09:57:26.205Z,34.76
2022-08-03T10:00:12.398Z,35.43
2022-08-03T10:03:04.872Z,34.22
2022-08-03T10:05:47.048Z,34.69
2022-08-03T10:08:29.047Z,35.23
2022-08-03T10:11:10.947Z,34.73
2022-08-03T10:13:57.992Z,35.06
2022-08-03T10:16:43.848Z,34.21
2022-08-03T10:19:26.050Z,34.37
2022-08-03T10:22:12.792Z,34.36
2022-08-03T10:25:00.491Z,34.55
2022-08-03T10:27:47.654Z,34.51
2022-08-03T10:30:32.220Z,34.18
2022-08-03T10:33:51.040Z,34.61
2022-08-03T10:36:37.028Z,33.91
2022-08-03T10:39:22.504Z,34.19
2022-08-03T10:42:06.268Z,34.47
2022-08-03T10:45:04.418Z,33.56
2022-08-03T10:47:51.749Z,33.22
2022-08-03T10:50:35.482Z,33.81
2022-08-03T10:53:35.746Z,34.07
2022-08-03T10:56:51.961Z,33.10
2022-08-03T10:59:45.991Z,31.47
2022-08-03T11:03:06.836Z,32.01
2022-08-03T11:05:49.565Z,31.61
2022-08-03T11:08:35.065Z,31.11
2022-08-03T11:11:20.163Z,30.71
2022-08-03T11:14:20.285Z,30.73
2022-08-03T11:17:14.377Z,31.39
2022-08-03T11:19:58.456Z,30.94
2022-08-03T11:22:49.217Z,31.34
2022-08-03T11:26:09.951Z,31.97
2022-08-03T11:28:51.922Z,32.02
2022-08-03T11:31:49.450Z,30.91
2022-08-03T11:34:31.996Z,31.00
2022-08-03T11:37:29.987Z,30.54
2022-08-03T11:40:33.577Z,30.98
2022-08-03T11:43:31.599Z,30.94
2022-08-03T11:46:29.483Z,32.95
2022-08-03T11:49:12.179Z,31.85
2022-08-03T11:51:55.176Z,31.35
2022-08-03T11:54:37.356Z,29.40
2022-08-03T11:59:15.277Z,29.36
2022-08-03T12:00:35.350Z,30.06
2022-08-03T12:03:19.367Z,29.35
2022-08-03T12:06:02.624Z,29.70
2022-08-03T12:08:46.975Z,29.84
2022-08-03T12:11:30.816Z,30.06
2022-08-03T12:14:49.909Z,29.83
2022-08-03T12:17:19.643Z,29.48
2022-08-03T12:20:02.870Z,29.36
2022-08-03T12:22:44.820Z,28.76
2022-08-03T12:25:38.907Z,30.40
2022-08-03T12:28:28.346Z,29.30
2022-08-03T12:31:19.794Z,29.16
2022-08-03T12:34:04.575Z,29.94
2022-08-03T12:36:56.388Z,29.78
2022-08-03T12:39:38.690Z,30.34
2022-08-03T12:42:41.279Z,30.06
2022-08-03T12:45:30.509Z,29.84
2022-08-03T12:48:12.435Z,30.64
2022-08-03T12:51:09.253Z,31.44
2022-08-03T12:53:55.773Z,32.49
2022-08-03T12:57:06.970Z,30.61
2022-08-03T12:59:52.904Z,30.65
2022-08-03T13:02:36.022Z,30.84
2022-08-03T13:05:19.823Z,31.26
2022-08-03T13:08:01.718Z,31.05
2022-08-03T13:10:43.922Z,31.13
2022-08-03T13:13:39.548Z,30.78
2022-08-03T13:16:22.997Z,30.22
2022-08-03T13:19:04.866Z,31.06
2022-08-03T13:22:01.690Z,31.30
2022-08-03T13:24:48.331Z,30.59
2022-08-03T13:28:04.149Z,30.79
2022-08-03T13:30:33.308Z,30.89
2022-08-03T13:33:15.203Z,31.00
2022-08-03T13:35:57.511Z,30.58
2022-08-03T13:38:39.477Z,29.96
2022-08-03T13:41:22.530Z,30.52
2022-08-03T13:44:28.919Z,30.95
2022-08-03T13:47:11.961Z,31.09
2022-08-03T13:50:01.211Z,30.49
2022-08-03T13:52:46.464Z,30.02
2022-08-03T13:55:28.565Z,31.24
2022-08-03T13:58:12.776Z,31.14
2022-08-03T14:00:54.815Z,30.90
2022-08-03T14:03:36.709Z,30.91
2022-08-03T14:06:19.323Z,30.96
2022-08-03T14:09:01.225Z,30.95
2022-08-03T14:12:06.997Z,31.31
2022-08-03T14:14:46.207Z,31.37
2022-08-03T14:17:28.204Z,31.67
2022-08-03T14:20:36.700Z,31.77
2022-08-03T14:23:19.541Z,31.41
2022-08-03T14:26:01.438Z,31.25
2022-08-03T14:28:43.337Z,31.42
2022-08-03T14:32:11.362Z,31.96
2022-08-03T14:34:27.377Z,32.20
2022-08-03T14:37:09.401Z,31.96
2022-08-03T14:40:00.526Z,31.57
2022-08-03T14:42:42.714Z,31.22
2022-08-03T14:45:24.711Z,30.86
2022-08-03T14:50:32.161Z,30.97
2022-08-03T14:51:08.925Z,31.42
2022-08-03T14:53:50.723Z,32.28
2022-08-03T14:56:32.676Z,31.71
2022-08-03T14:59:14.569Z,32.58
2022-08-03T15:02:04.925Z,32.80
2022-08-03T15:04:49.623Z,32.41
2022-08-03T15:07:31.622Z,32.93
2022-08-03T15:10:13.620Z,33.03
2022-08-03T15:12:55.825Z,33.15
2022-08-03T15:15:37.666Z,33.06
2022-08-03T15:18:21.887Z,33.29
2022-08-03T15:21:05.504Z,32.91
2022-08-03T15:23:48.363Z,32.85
2022-08-03T15:26:36.577Z,32.94
2022-08-03T15:30:06.176Z,33.30
2022-08-03T15:32:24.728Z,32.49
2022-08-03T15:35:08.468Z,32.58
2022-08-03T15:37:51.285Z,32.46
2022-08-03T15:40:33.542Z,32.93
2022-08-03T15:43:15.862Z,32.83
2022-08-03T15:46:27.695Z,32.84
2022-08-03T15:49:00.886Z,33.14
2022-08-03T15:51:42.780Z,32.43
2022-08-03T15:54:24.729Z,33.10
2022-08-03T15:57:07.595Z,33.03
2022-08-03T15:59:49.436Z,32.98
2022-08-03T16:02:31.386Z,32.98
2022-08-03T16:05:13.181Z,32.84
2022-08-03T16:08:02.655Z,33.05
2022-08-03T16:10:48.079Z,33.12
2022-08-03T16:14:13.820Z,33.62
2022-08-03T16:16:32.716Z,33.49
2022-08-03T16:19:15.223Z,33.26
2022-08-03T16:21:57.117Z,33.62
2022-08-03T16:24:39.731Z,33.52
2022-08-03T16:27:37.156Z,34.21
2022-08-03T16:30:25.539Z,34.49
2022-08-03T16:33:07.638Z,34.57
2022-08-03T16:35:49.944Z,34.89
2022-08-03T16:38:31.956Z,35.52
2022-08-03T16:41:13.841Z,35.77
2022-08-03T16:43:55.938Z,35.58
2022-08-03T16:46:38.142Z,36.10
2022-08-03T16:49:54.564Z,36.29
2022-08-03T16:52:22.901Z,37.23
2022-08-03T16:55:06.837Z,37.37
2022-08-03T16:57:58.714Z,37.60
2022-08-03T17:00:43.265Z,37.87
2022-08-03T17:03:42.752Z,38.06
2022-08-03T17:06:45.180Z,38.22
2022-08-03T17:09:29.544Z,38.35
2022-08-03T17:12:20.608Z,38.50
2022-08-03T17:15:03.320Z,38.36
2022-08-03T17:18:01.932Z,38.86
2022-08-03T17:20:47.164Z,39.05
2022-08-03T17:23:46.318Z,39.23
2022-08-03T17:26:30.611Z,39.59
2022-08-03T17:29:14.572Z,39.60
2022-08-03T17:31:57.545Z,39.94
2022-08-03T17:34:44.784Z,39.91
2022-08-03T17:37:57.698Z,40.52
2022-08-03T17:40:31.128Z,40.78
2022-08-03T17:44:12.815Z,40.82
2022-08-03T17:46:23.039Z,41.26
2022-08-03T17:49:05.706Z,41.15
2022-08-03T17:52:32.804Z,41.58
2022-08-03T17:55:57.093Z,41.86
2022-08-03T17:58:55.739Z,42.24
2022-08-03T18:02:18.547Z,42.48
2022-08-03T18:08:17.252Z,43.16
2022-08-03T18:11:14.815Z,43.42
2022-08-03T18:14:15.948Z,43.47
2022-08-03T18:17:06.545Z,43.67
2022-08-03T18:20:03.657Z,44.19
2022-08-03T18:22:53.676Z,44.35
2022-08-03T18:25:45.337Z,44.60
2022-08-03T18:28:31.472Z,44.62
2022-08-03T18:32:00.175Z,44.79
2022-08-03T18:34:33.241Z,44.80
2022-08-03T18:37:19.486Z,45.01
2022-08-03T18:40:07.370Z,45.28
2022-08-03T18:42:52.890Z,45.69
2022-08-03T18:45:57.810Z,45.95
2022-08-03T18:48:53.217Z,46.21
2022-08-03T18:51:43.243Z,46.57
2022-08-03T18:54:47.061Z,46.88
2022-08-03T18:57:46.454Z,47.06
2022-08-03T19:00:42.585Z,47.37
2022-08-03T19:03:41.593Z,47.63
2022-08-03T19:06:28.968Z,47.82
2022-08-03T19:09:28.325Z,48.18
2022-08-03T19:12:30.940Z,48.37
2022-08-03T19:15:36.160Z,48.54
2022-08-03T19:18:20.961Z,48.69
2022-08-03T19:21:12.837Z,48.72
2022-08-03T19:24:07.905Z,49.07
2022-08-03T19:26:55.989Z,49.24
2022-08-03T19:29:58.579Z,49.46
2022-08-03T19:32:48.373Z,49.59
2022-08-03T19:35:51.611Z,49.97
2022-08-03T19:38:32.774Z,50.02
2022-08-03T19:41:17.877Z,50.46
2022-08-03T19:44:04.480Z,50.61
2022-08-03T19:46:55.481Z,50.83
2022-08-03T19:52:47.608Z,51.26
2022-08-03T19:55:32.357Z,51.20
2022-08-03T19:58:17.639Z,51.42
2022-08-03T20:01:19.534Z,51.71
2022-08-03T20:04:03.460Z,51.91
2022-08-03T20:06:47.846Z,52.06
2022-08-03T20:09:34.522Z,52.15
2022-08-03T20:12:17.575Z,52.44
2022-08-03T20:15:09.337Z,52.40
2022-08-03T20:17:55.415Z,52.73
2022-08-03T20:20:40.128Z,52.83
2022-08-03T20:23:27.246Z,52.85
2022-08-03T20:26:20.508Z,52.96
2022-08-03T20:29:10.015Z,53.36
2022-08-03T20:31:52.286Z,53.44
2022-08-03T20:34:34.185Z,53.83
2022-08-03T20:37:17.205Z,53.93
2022-08-03T20:40:00.437Z,54.07
2022-08-03T20:42:42.636Z,54.30
2022-08-03T20:45:58.582Z,54.58
2022-08-03T20:48:27.057Z,54.81
2022-08-03T20:51:20.214Z,55.05
2022-08-03T20:54:22.991Z,55.16
2022-08-03T20:57:11.608Z,55.30
2022-08-03T20:59:55.758Z,55.29
2022-08-03T21:02:38.511Z,55.17
2022-08-03T21:05:47.735Z,55.61
2022-08-03T21:08:26.230Z,55.55
2022-08-03T21:11:15.809Z,55.52
2022-08-03T21:12:56.493Z,42.90
2022-08-03T21:13:11.193Z,51.17
2022-08-03T21:14:01.950Z,55.53
2022-08-03T21:16:48.308Z,55.66
2022-08-03T21:19:32.115Z,55.88
2022-08-03T21:22:15.955Z,55.92
2022-08-03T21:25:00.137Z,56.09
2022-08-03T21:27:42.185Z,56.24
2022-08-03T21:30:26.682Z,56.33
2022-08-03T21:33:08.785Z,56.46
2022-08-03T21:35:51.398Z,56.50
2022-08-03T21:38:36.384Z,56.56
2022-08-03T21:41:19.435Z,56.89
2022-08-03T21:44:05.154Z,56.91
2022-08-03T21:46:50.247Z,56.86
2022-08-03T21:50:05.268Z,56.90
2022-08-03T21:52:47.418Z,57.19
2022-08-03T21:55:31.260Z,57.28
2022-08-03T21:58:17.526Z,57.34
2022-08-03T22:00:59.812Z,57.57
2022-08-03T22:03:53.197Z,57.68
2022-08-03T22:06:36.457Z,57.75
2022-08-03T22:09:19.378Z,57.86
2022-08-03T22:12:01.274Z,57.93
2022-08-03T22:14:43.681Z,58.19
2022-08-03T22:17:54.527Z,58.38
2022-08-03T22:20:28.875Z,58.52
2022-08-03T22:23:11.587Z,58.72
2022-08-03T22:25:56.705Z,58.62
2022-08-03T22:28:39.169Z,59.04
2022-08-03T22:31:37.656Z,59.05
2022-08-03T22:34:26.848Z,59.13
2022-08-03T22:37:10.967Z,59.18
2022-08-03T22:39:54.960Z,59.26
2022-08-03T22:42:37.114Z,59.21
2022-08-03T22:46:07.036Z,59.26
2022-08-03T22:48:22.346Z,59.30
2022-08-03T22:51:05.551Z,59.35
2022-08-03T22:53:47.987Z,59.35
2022-08-03T22:56:29.940Z,59.35
2022-08-03T22:59:40.407Z,59.27
2022-08-03T23:02:23.336Z,59.33
2022-08-03T23:05:11.011Z,59.13
2022-08-03T23:08:12.614Z,59.12
2022-08-03T23:11:00.041Z,59.04
2022-08-03T23:13:42.941Z,59.04
2022-08-03T23:16:29.261Z,58.90
2022-08-03T23:19:17.365Z,58.90
2022-08-03T23:22:08.151Z,58.85
2022-08-03T23:25:11.525Z,58.82
2022-08-03T23:28:05.215Z,58.74
2022-08-03T23:30:51.491Z,58.79
2022-08-03T23:33:34.394Z,58.77
2022-08-03T23:36:31.198Z,58.85
2022-08-03T23:39:16.781Z,58.87
2022-08-03T23:42:00.051Z,58.84
2022-08-03T23:44:44.710Z,58.81
2022-08-03T23:47:46.323Z,58.83
2022-08-03T23:50:40.655Z,58.94
2022-08-03T23:53:31.976Z,58.94
2022-08-03T23:56:48.889Z,59.07
2022-08-03T23:59:51.881Z,59.09
